< < Back
Terminal Aerodrome Forecast


Current Version              Previous Versions:   1  2  3  4  5  6  7  8  9  

Terminal Aerodrome Forecast

791
FTUS44 KBMX 280500
TAFMGM
TAF
KMGM 280521Z 2806/2906 00000KT P6SM FEW200
     FM281800 VRB05KT P6SM FEW050=



Latest METAR

204
SAUS80 KWBC 272300 RRF
MTRMGM
METAR KMGM 282253Z 11005KT 10SM CLR 32/17 A2996 RMK AO2 SLP142
T03220167


USA.gov is the U.S. government's official web portal to all federal, state and local government web resources and services.